createdAt,value
2022-10-29T00:01:01.525Z,4.80
2022-10-29T00:03:03.043Z,5.20
2022-10-29T00:05:04.833Z,6.38
2022-10-29T00:07:06.528Z,5.20
2022-10-29T00:09:08.011Z,4.90
2022-10-29T00:11:13.199Z,5.25
2022-10-29T00:13:14.992Z,5.28
2022-10-29T00:15:16.935Z,4.70
2022-10-29T00:17:18.362Z,5.70
2022-10-29T00:19:20.206Z,4.72
2022-10-29T00:21:24.633Z,5.50
2022-10-29T00:23:32.227Z,5.25
2022-10-29T00:25:33.715Z,5.47
2022-10-29T00:27:35.154Z,5.25
2022-10-29T00:29:36.589Z,4.35
2022-10-29T00:31:38.099Z,5.38
2022-10-29T00:33:39.904Z,4.93
2022-10-29T00:35:41.341Z,5.55
2022-10-29T00:37:42.810Z,5.20
2022-10-29T00:39:44.232Z,5.65
2022-10-29T00:41:45.707Z,4.72
2022-10-29T00:43:52.174Z,5.28
2022-10-29T00:46:01.387Z,5.18
2022-10-29T00:48:02.939Z,4.78
2022-10-29T00:50:11.279Z,5.07
2022-10-29T00:52:14.775Z,5.72
2022-10-29T00:54:16.926Z,4.78
2022-10-29T00:56:18.651Z,5.30
2022-10-29T00:58:21.733Z,5.70
2022-10-29T01:00:23.294Z,4.55
2022-10-29T01:02:25.894Z,5.07
2022-10-29T01:04:27.740Z,5.15
2022-10-29T01:06:30.956Z,5.35
2022-10-29T01:08:32.463Z,4.97
2022-10-29T01:11:00.038Z,5.25
2022-10-29T01:13:30.633Z,4.68
2022-10-29T01:16:13.662Z,4.90
2022-10-29T01:18:29.534Z,4.75
2022-10-29T01:20:49.299Z,4.90
2022-10-29T01:22:59.043Z,4.40
2022-10-29T01:25:36.014Z,4.03
2022-10-29T01:28:16.173Z,5.10
2022-10-29T01:30:50.301Z,4.80
2022-10-29T01:33:06.595Z,5.05
2022-10-29T01:35:17.893Z,5.15
2022-10-29T01:37:50.190Z,4.22
2022-10-29T01:40:05.707Z,5.20
2022-10-29T01:42:16.998Z,4.40
2022-10-29T01:44:29.218Z,4.50
2022-10-29T01:46:42.809Z,4.47
2022-10-29T01:48:48.324Z,5.18
2022-10-29T01:50:54.709Z,4.88
2022-10-29T01:52:57.620Z,5.05
2022-10-29T01:54:59.174Z,4.65
2022-10-29T01:57:01.043Z,4.22
2022-10-29T01:59:06.898Z,4.85
2022-10-29T02:01:14.384Z,5.20
2022-10-29T02:03:41.859Z,4.32
2022-10-29T02:06:05.814Z,4.63
2022-10-29T02:08:25.150Z,3.97
2022-10-29T02:10:33.913Z,4.90
2022-10-29T02:12:48.696Z,4.60
2022-10-29T02:15:00.412Z,5.00
2022-10-29T02:17:02.480Z,4.57
2022-10-29T02:19:05.724Z,4.68
2022-10-29T02:21:07.212Z,4.28
2022-10-29T02:23:09.253Z,4.35
2022-10-29T02:25:11.398Z,4.35
2022-10-29T02:27:12.923Z,4.82
2022-10-29T02:29:14.391Z,5.07
2022-10-29T02:31:15.902Z,4.93
2022-10-29T02:33:17.350Z,4.35
2022-10-29T02:35:18.818Z,4.85
2022-10-29T02:37:20.261Z,5.45
2022-10-29T02:39:21.785Z,5.15
2022-10-29T02:41:23.215Z,5.20
2022-10-29T02:43:24.647Z,5.22
2022-10-29T02:45:26.106Z,5.05
2022-10-29T02:47:28.129Z,4.38
2022-10-29T02:49:29.715Z,4.78
2022-10-29T02:51:31.167Z,4.72
2022-10-29T02:53:32.610Z,4.55
2022-10-29T02:55:34.058Z,4.45
2022-10-29T02:57:35.492Z,5.57
2022-10-29T02:59:36.963Z,4.88
2022-10-29T03:01:38.467Z,4.88
2022-10-29T03:03:39.968Z,4.70
2022-10-29T03:05:45.125Z,4.75
2022-10-29T03:07:48.034Z,4.85
2022-10-29T03:09:49.583Z,5.05
2022-10-29T03:11:51.022Z,4.65
2022-10-29T03:13:52.470Z,4.57
2022-10-29T03:15:54.096Z,5.22
2022-10-29T03:17:56.032Z,5.10
2022-10-29T03:19:57.611Z,4.25
2022-10-29T03:21:59.052Z,4.38
2022-10-29T03:24:00.686Z,4.85
2022-10-29T03:26:02.270Z,4.78
2022-10-29T03:28:03.805Z,4.55
2022-10-29T03:30:05.850Z,5.13
2022-10-29T03:32:07.361Z,4.82
2022-10-29T03:34:08.785Z,4.90
2022-10-29T03:36:10.381Z,5.10
2022-10-29T03:38:11.924Z,4.63
2022-10-29T03:40:13.452Z,4.50
2022-10-29T03:42:14.876Z,5.07
2022-10-29T03:44:16.318Z,4.57
2022-10-29T03:46:17.780Z,4.85
2022-10-29T03:48:19.685Z,4.60
2022-10-29T03:50:21.172Z,4.50
2022-10-29T03:52:22.635Z,5.00
2022-10-29T03:54:24.141Z,5.55
2022-10-29T03:56:25.579Z,4.68
2022-10-29T03:58:27.696Z,4.50
2022-10-29T04:00:29.160Z,5.30
2022-10-29T04:02:30.906Z,5.57
2022-10-29T04:04:32.472Z,5.35
2022-10-29T04:06:33.953Z,5.00
2022-10-29T04:08:35.428Z,4.15
2022-10-29T04:10:36.859Z,5.45
2022-10-29T04:12:38.290Z,5.28
2022-10-29T04:14:44.477Z,5.72
2022-10-29T04:16:47.104Z,5.72
2022-10-29T04:18:49.670Z,5.43
2022-10-29T04:27:07.989Z,5.97
2022-10-29T04:30:17.702Z,5.65
2022-10-29T04:32:19.131Z,4.50
2022-10-29T04:34:20.802Z,4.43
2022-10-29T04:36:22.258Z,5.07
2022-10-29T04:38:23.755Z,5.50
2022-10-29T04:40:25.733Z,5.22
2022-10-29T04:42:27.154Z,5.22
2022-10-29T04:44:28.644Z,5.05
2022-10-29T04:46:30.100Z,5.40
2022-10-29T04:48:31.520Z,5.18
2022-10-29T04:50:34.299Z,4.45
2022-10-29T04:52:35.763Z,4.63
2022-10-29T04:54:37.194Z,4.68
2022-10-29T04:56:38.621Z,5.63
2022-10-29T04:58:40.053Z,5.00
2022-10-29T05:00:43.586Z,5.43
2022-10-29T05:02:49.842Z,5.38
2022-10-29T05:04:51.295Z,5.22
2022-10-29T05:06:52.734Z,4.90
2022-10-29T05:08:54.195Z,4.78
2022-10-29T05:10:55.690Z,4.68
2022-10-29T05:13:01.883Z,4.68
2022-10-29T05:15:04.422Z,5.03
2022-10-29T05:19:12.200Z,5.68
2022-10-29T05:21:13.920Z,6.22
2022-10-29T05:23:15.416Z,6.03
2022-10-29T05:25:17.036Z,5.60
2022-10-29T05:27:18.495Z,5.25
2022-10-29T05:29:19.940Z,4.75
2022-10-29T05:31:21.428Z,4.68
2022-10-29T05:33:24.673Z,5.07
2022-10-29T05:35:26.580Z,4.72
2022-10-29T05:37:28.003Z,5.13
2022-10-29T05:39:29.461Z,5.47
2022-10-29T05:41:30.896Z,5.25
2022-10-29T05:43:32.363Z,5.03
2022-10-29T05:45:34.616Z,4.80
2022-10-29T05:47:36.127Z,4.90
2022-10-29T05:49:37.581Z,5.75
2022-10-29T05:51:39.037Z,5.28
2022-10-29T05:53:40.443Z,5.35
2022-10-29T05:55:42.539Z,5.65
2022-10-29T05:57:43.968Z,5.28
2022-10-29T05:59:45.433Z,5.72
2022-10-29T06:01:47.021Z,5.78
2022-10-29T06:03:48.688Z,5.65
2022-10-29T06:05:50.552Z,5.15
2022-10-29T06:07:57.339Z,6.88
2022-10-29T06:09:58.975Z,6.93
2022-10-29T06:12:00.421Z,7.10
2022-10-29T06:14:01.840Z,7.63
2022-10-29T06:16:03.383Z,7.90
2022-10-29T06:18:05.062Z,7.60
2022-10-29T06:20:07.720Z,6.95
2022-10-29T06:22:09.241Z,6.28
2022-10-29T06:24:10.814Z,6.80
2022-10-29T06:26:12.240Z,6.95
2022-10-29T06:28:15.384Z,6.88
2022-10-29T06:30:17.041Z,7.50
2022-10-29T06:32:18.481Z,34.22
2022-10-29T06:34:19.951Z,15.25
2022-10-29T06:36:21.495Z,15.00
2022-10-29T06:38:22.916Z,8.80
2022-10-29T06:40:24.478Z,7.95
2022-10-29T06:42:25.936Z,7.45
2022-10-29T06:44:27.395Z,8.15
2022-10-29T06:46:28.830Z,8.65
2022-10-29T06:48:30.318Z,9.15
2022-10-29T06:50:32.385Z,8.60
2022-10-29T06:52:34.439Z,9.05
2022-10-29T06:54:35.901Z,8.13
2022-10-29T06:56:37.412Z,8.38
2022-10-29T06:58:38.874Z,8.48
2022-10-29T07:00:41.654Z,9.35
2022-10-29T07:02:46.209Z,8.95
2022-10-29T07:04:47.805Z,8.90
2022-10-29T07:06:49.248Z,8.60
2022-10-29T07:08:50.729Z,8.15
2022-10-29T07:10:53.553Z,8.57
2022-10-29T07:12:55.230Z,9.00
2022-10-29T07:14:56.719Z,8.55
2022-10-29T07:16:58.134Z,7.95
2022-10-29T07:18:59.647Z,9.02
2022-10-29T07:21:03.740Z,7.55
2022-10-29T07:23:05.899Z,8.75
2022-10-29T07:25:07.809Z,9.38
2022-10-29T07:27:09.409Z,9.85
2022-10-29T07:29:11.016Z,9.05
2022-10-29T07:31:12.466Z,9.45
2022-10-29T07:33:14.768Z,9.25
2022-10-29T07:35:16.339Z,8.32
2022-10-29T07:37:17.773Z,7.75
2022-10-29T07:39:19.297Z,8.32
2022-10-29T07:41:20.730Z,8.18
2022-10-29T07:43:22.759Z,9.32
2022-10-29T07:45:24.725Z,10.40
2022-10-29T07:47:26.135Z,7.93
2022-10-29T07:49:27.606Z,8.48
2022-10-29T07:51:29.063Z,7.55
2022-10-29T07:53:33.317Z,7.50
2022-10-29T07:55:35.421Z,7.72
2022-10-29T07:57:36.914Z,7.00
2022-10-29T07:59:38.334Z,7.85
2022-10-29T08:01:40.277Z,7.43
2022-10-29T08:03:41.774Z,8.07
2022-10-29T08:05:43.768Z,8.75
2022-10-29T08:07:45.237Z,8.05
2022-10-29T08:09:46.695Z,8.20
2022-10-29T08:13:54.554Z,9.40
2022-10-29T08:15:56.433Z,8.77
2022-10-29T08:17:58.400Z,8.07
2022-10-29T08:19:59.837Z,8.98
2022-10-29T08:22:01.363Z,9.13
2022-10-29T08:24:02.889Z,8.57
2022-10-29T08:26:04.378Z,9.38
2022-10-29T08:28:05.889Z,8.88
2022-10-29T08:30:09.172Z,9.88
2022-10-29T08:32:10.633Z,8.63
2022-10-29T08:34:12.141Z,9.25
2022-10-29T08:36:13.648Z,9.43
2022-10-29T08:38:15.325Z,9.93
2022-10-29T08:40:39.548Z,9.45
2022-10-29T08:42:55.186Z,10.43
2022-10-29T08:44:59.559Z,10.38
2022-10-29T08:47:21.190Z,9.50
2022-10-29T08:49:25.626Z,9.40
2022-10-29T08:51:38.742Z,10.98
2022-10-29T08:53:54.315Z,10.10
2022-10-29T08:56:16.070Z,9.82
2022-10-29T08:58:27.947Z,10.32
2022-10-29T09:00:35.278Z,10.77
2022-10-29T09:02:36.767Z,9.20
2022-10-29T09:04:38.349Z,11.45
2022-10-29T09:07:06.877Z,9.85
2022-10-29T09:09:31.473Z,10.50
2022-10-29T09:11:44.844Z,11.32
2022-10-29T09:13:49.213Z,9.98
2022-10-29T09:16:12.475Z,10.63
2022-10-29T09:18:13.882Z,10.93
2022-10-29T09:20:51.008Z,10.70
2022-10-29T09:23:18.721Z,9.80
2022-10-29T09:25:52.426Z,9.07
2022-10-29T09:28:06.513Z,9.63
2022-10-29T09:30:20.869Z,9.23
2022-10-29T09:32:27.161Z,9.35
2022-10-29T09:34:43.676Z,15.95
2022-10-29T09:36:47.251Z,11.52
2022-10-29T09:38:59.946Z,10.55
2022-10-29T09:41:03.817Z,11.27
2022-10-29T09:43:15.493Z,11.55
2022-10-29T09:45:22.420Z,10.27
2022-10-29T09:47:32.897Z,10.73
2022-10-29T09:50:09.787Z,11.00
2022-10-29T09:52:20.838Z,10.00
2022-10-29T09:54:25.357Z,10.52
2022-10-29T09:56:26.870Z,10.82
2022-10-29T09:58:28.650Z,12.05
2022-10-29T10:00:31.626Z,13.90
2022-10-29T10:02:55.396Z,13.93
2022-10-29T10:05:04.764Z,12.88
2022-10-29T10:07:09.180Z,12.10
2022-10-29T10:09:10.641Z,11.93
2022-10-29T10:11:19.922Z,10.48
2022-10-29T10:13:29.047Z,11.18
2022-10-29T10:15:33.799Z,11.02
2022-10-29T10:17:55.904Z,13.52
2022-10-29T10:19:57.721Z,10.15
2022-10-29T10:22:01.436Z,10.73
2022-10-29T10:24:02.887Z,10.10
2022-10-29T10:26:05.551Z,10.10
2022-10-29T10:28:18.007Z,10.65
2022-10-29T10:30:22.887Z,10.95
2022-10-29T10:32:25.688Z,11.20
2022-10-29T10:34:37.959Z,9.80
2022-10-29T10:36:43.116Z,10.07
2022-10-29T10:38:50.882Z,10.63
2022-10-29T10:41:05.381Z,10.82
2022-10-29T10:43:08.907Z,10.43
2022-10-29T10:45:25.548Z,10.15
2022-10-29T10:47:30.839Z,9.57
2022-10-29T10:49:36.404Z,10.40
2022-10-29T10:51:42.605Z,9.77
2022-10-29T10:53:44.334Z,9.30
2022-10-29T10:55:50.991Z,10.32
2022-10-29T10:58:12.396Z,10.40
2022-10-29T11:00:18.785Z,9.98
2022-10-29T11:02:37.840Z,8.95
2022-10-29T11:04:41.267Z,8.93
2022-10-29T11:06:47.930Z,9.15
2022-10-29T11:09:07.196Z,8.73
2022-10-29T11:11:15.832Z,9.65
2022-10-29T11:15:36.097Z,8.48
2022-10-29T11:17:53.878Z,8.85
2022-10-29T11:20:03.271Z,7.50
2022-10-29T11:22:16.591Z,8.82
2022-10-29T11:25:15.699Z,8.18
2022-10-29T11:27:26.085Z,9.00
2022-10-29T11:29:57.291Z,8.50
2022-10-29T11:32:10.159Z,7.90
2022-10-29T11:34:21.236Z,8.38
2022-10-29T11:36:24.122Z,7.63
2022-10-29T11:38:34.074Z,8.60
2022-10-29T11:40:35.532Z,8.18
2022-10-29T11:42:39.246Z,8.48
2022-10-29T11:44:41.552Z,8.88
2022-10-29T11:46:49.107Z,9.95
2022-10-29T11:49:29.357Z,9.20
2022-10-29T11:51:39.485Z,8.80
2022-10-29T11:54:06.206Z,10.30
2022-10-29T11:56:18.721Z,9.35
2022-10-29T11:58:34.233Z,9.07
2022-10-29T12:01:05.930Z,8.70
2022-10-29T12:03:46.986Z,8.38
2022-10-29T12:06:09.940Z,9.45
2022-10-29T12:08:48.491Z,8.93
2022-10-29T12:11:31.462Z,10.52
2022-10-29T12:13:37.875Z,8.70
2022-10-29T12:15:41.964Z,9.90
2022-10-29T12:18:06.183Z,9.70
2022-10-29T12:20:23.492Z,9.50
2022-10-29T12:22:33.729Z,9.43
2022-10-29T12:24:58.737Z,9.10
2022-10-29T12:27:14.501Z,9.85
2022-10-29T12:29:33.861Z,9.70
2022-10-29T12:31:51.809Z,9.45
2022-10-29T12:34:11.322Z,9.70
2022-10-29T12:36:31.471Z,9.00
2022-10-29T12:38:48.814Z,9.27
2022-10-29T12:40:58.802Z,8.82
2022-10-29T12:43:11.058Z,9.05
2022-10-29T12:46:19.020Z,9.65
2022-10-29T12:48:37.059Z,11.45
2022-10-29T12:50:58.144Z,9.80
2022-10-29T12:53:14.780Z,9.20
2022-10-29T12:55:17.597Z,8.85
2022-10-29T12:57:28.736Z,10.30
2022-10-29T12:59:35.057Z,9.82
2022-10-29T13:02:05.798Z,9.05
2022-10-29T13:04:02.343Z,9.30
2022-10-29T13:06:41.790Z,9.48
2022-10-29T13:08:56.083Z,10.27
2022-10-29T13:10:57.652Z,11.05
2022-10-29T13:12:59.026Z,10.48
2022-10-29T13:15:09.124Z,10.85
2022-10-29T13:17:25.850Z,10.65
2022-10-29T13:19:59.448Z,11.82
2022-10-29T13:22:25.088Z,10.05
2022-10-29T13:24:28.310Z,10.70
2022-10-29T13:26:53.728Z,10.93
2022-10-29T13:28:55.244Z,11.10
2022-10-29T13:30:59.452Z,9.55
2022-10-29T13:33:01.231Z,11.10
2022-10-29T13:35:24.668Z,10.20
2022-10-29T13:37:38.039Z,10.15
2022-10-29T13:39:39.452Z,11.32
2022-10-29T13:41:50.106Z,10.00
2022-10-29T13:43:54.354Z,10.60
2022-10-29T13:46:13.957Z,10.68
2022-10-29T13:48:30.610Z,10.80
2022-10-29T13:50:34.672Z,10.73
2022-10-29T13:52:37.379Z,10.63
2022-10-29T13:54:56.338Z,12.07
2022-10-29T13:57:08.159Z,11.02
2022-10-29T13:59:19.549Z,10.88
2022-10-29T14:01:22.918Z,11.15
2022-10-29T14:03:35.770Z,11.38
2022-10-29T14:05:46.588Z,10.90
2022-10-29T14:08:15.347Z,13.32
2022-10-29T14:10:35.536Z,12.60
2022-10-29T14:12:38.288Z,9.75
2022-10-29T14:14:51.609Z,9.63
2022-10-29T14:17:15.659Z,9.95
2022-10-29T14:19:21.652Z,9.65
2022-10-29T14:21:25.792Z,10.10
2022-10-29T14:23:29.653Z,9.05
2022-10-29T14:25:34.510Z,9.93
2022-10-29T14:27:35.961Z,8.98
2022-10-29T14:29:38.374Z,9.63
2022-10-29T14:31:40.158Z,9.50
2022-10-29T14:33:43.552Z,10.15
2022-10-29T14:35:46.106Z,9.68
2022-10-29T14:37:48.786Z,9.43
2022-10-29T14:40:00.791Z,8.80
2022-10-29T14:42:02.657Z,10.52
2022-10-29T14:44:09.575Z,9.15
2022-10-29T14:46:19.245Z,9.15
2022-10-29T14:48:20.924Z,10.63
2022-10-29T14:50:25.405Z,9.60
2022-10-29T14:52:34.073Z,9.50
2022-10-29T14:54:39.830Z,9.85
2022-10-29T14:56:41.716Z,10.85
2022-10-29T14:58:43.208Z,10.15
2022-10-29T15:00:54.357Z,9.40
2022-10-29T15:02:57.174Z,9.02
2022-10-29T15:05:04.427Z,9.65
2022-10-29T15:09:26.847Z,9.70
2022-10-29T15:11:33.017Z,10.00
2022-10-29T15:13:34.966Z,10.00
2022-10-29T15:15:36.999Z,11.10
2022-10-29T15:17:49.702Z,9.52
2022-10-29T15:19:58.268Z,10.18
2022-10-29T15:24:07.803Z,12.00
2022-10-29T15:26:14.775Z,11.10
2022-10-29T15:28:29.169Z,10.25
2022-10-29T15:30:36.235Z,10.85
2022-10-29T15:32:37.755Z,11.52
2022-10-29T15:34:40.398Z,10.38
2022-10-29T15:36:53.106Z,11.35
2022-10-29T15:39:26.631Z,11.50
2022-10-29T15:41:37.461Z,11.05
2022-10-29T15:43:56.118Z,9.98
2022-10-29T15:45:58.179Z,11.00
2022-10-29T15:48:05.676Z,10.48
2022-10-29T15:50:10.998Z,9.38
2022-10-29T15:52:17.671Z,9.80
2022-10-29T15:54:19.297Z,10.57
2022-10-29T15:56:20.776Z,9.57
2022-10-29T15:58:23.278Z,10.88
2022-10-29T16:00:24.919Z,10.77
2022-10-29T16:02:26.551Z,10.25
2022-10-29T16:04:28.059Z,10.15
2022-10-29T16:06:30.315Z,9.57
2022-10-29T16:08:44.375Z,10.50
2022-10-29T16:10:45.940Z,11.15
2022-10-29T16:12:49.598Z,10.05
2022-10-29T16:14:51.039Z,10.98
2022-10-29T16:16:52.453Z,10.85
2022-10-29T16:18:54.490Z,10.20
2022-10-29T16:21:01.719Z,10.20
2022-10-29T16:23:03.373Z,9.60
2022-10-29T16:25:05.283Z,10.35
2022-10-29T16:27:14.817Z,10.82
2022-10-29T16:29:16.278Z,10.77
2022-10-29T16:31:23.911Z,10.85
2022-10-29T16:33:26.076Z,13.87
2022-10-29T16:35:29.875Z,14.63
2022-10-29T16:37:31.422Z,18.73
2022-10-29T16:39:32.853Z,16.90
2022-10-29T16:41:35.082Z,17.15
2022-10-29T16:43:36.503Z,19.48
2022-10-29T16:45:38.087Z,16.85
2022-10-29T16:47:39.649Z,14.80
2022-10-29T16:49:41.068Z,16.33
2022-10-29T16:51:42.713Z,14.73
2022-10-29T16:53:44.128Z,13.10
2022-10-29T16:55:45.590Z,12.68
2022-10-29T16:57:47.133Z,11.65
2022-10-29T16:59:48.670Z,11.88
2022-10-29T17:01:50.138Z,11.15
2022-10-29T17:03:52.268Z,11.07
2022-10-29T17:05:53.748Z,12.25
2022-10-29T17:07:55.845Z,11.27
2022-10-29T17:09:57.369Z,11.50
2022-10-29T17:11:58.886Z,13.38
2022-10-29T17:14:00.363Z,12.57
2022-10-29T17:16:14.670Z,12.85
2022-10-29T17:18:16.131Z,11.95
2022-10-29T17:20:17.761Z,12.10
2022-10-29T17:22:19.358Z,10.45
2022-10-29T17:24:20.801Z,11.52
2022-10-29T17:26:22.305Z,11.25
2022-10-29T17:28:25.527Z,11.57
2022-10-29T17:30:26.986Z,11.48
2022-10-29T17:32:32.490Z,10.75
2022-10-29T17:34:34.261Z,11.10
2022-10-29T17:36:40.816Z,11.25
2022-10-29T17:38:42.294Z,11.32
2022-10-29T17:40:46.062Z,11.57
2022-10-29T17:42:47.507Z,12.18
2022-10-29T17:44:48.934Z,12.30
2022-10-29T17:46:50.439Z,11.68
2022-10-29T17:48:56.244Z,11.38
2022-10-29T17:50:59.980Z,11.75
2022-10-29T17:53:01.697Z,11.85
2022-10-29T17:55:03.251Z,11.30
2022-10-29T17:57:04.711Z,13.27
2022-10-29T17:59:06.136Z,11.45
2022-10-29T18:01:10.495Z,11.15
2022-10-29T18:03:12.316Z,10.73
2022-10-29T18:05:13.851Z,12.07
2022-10-29T18:07:15.292Z,11.80
2022-10-29T18:09:20.280Z,10.63
2022-10-29T18:11:24.465Z,11.18
2022-10-29T18:13:25.871Z,11.35
2022-10-29T18:15:27.669Z,11.15
2022-10-29T18:17:29.204Z,11.23
2022-10-29T18:19:30.623Z,11.57
2022-10-29T18:21:32.626Z,11.77
2022-10-29T18:23:34.198Z,11.07
2022-10-29T18:25:35.643Z,11.57
2022-10-29T18:27:37.350Z,13.20
2022-10-29T18:29:38.765Z,12.80
2022-10-29T18:31:44.794Z,12.25
2022-10-29T18:33:46.941Z,13.68
2022-10-29T18:35:48.510Z,12.95
2022-10-29T18:37:49.959Z,12.05
2022-10-29T18:39:52.762Z,13.30
2022-10-29T18:41:54.284Z,12.50
2022-10-29T18:43:56.146Z,11.68
2022-10-29T18:45:59.239Z,11.55
2022-10-29T18:48:01.194Z,11.70
2022-10-29T18:50:03.053Z,12.82
2022-10-29T18:52:04.600Z,12.73
2022-10-29T18:54:06.126Z,12.27
2022-10-29T18:56:13.322Z,12.15
2022-10-29T18:58:14.756Z,11.35
2022-10-29T19:00:16.817Z,11.40
2022-10-29T19:02:18.380Z,10.85
2022-10-29T19:04:19.899Z,11.57
2022-10-29T19:06:23.003Z,10.35
2022-10-29T19:08:24.452Z,11.30
2022-10-29T19:10:25.887Z,11.30
2022-10-29T19:12:27.322Z,11.32
2022-10-29T19:14:28.799Z,11.43
2022-10-29T19:16:31.860Z,13.40
2022-10-29T19:18:34.175Z,20.20
2022-10-29T19:20:36.185Z,12.70
2022-10-29T19:22:37.602Z,12.00
2022-10-29T19:24:39.112Z,12.93
2022-10-29T19:26:41.269Z,25.25
2022-10-29T19:28:44.073Z,18.48
2022-10-29T19:30:45.584Z,12.88
2022-10-29T19:32:47.114Z,13.40
2022-10-29T19:34:48.586Z,13.25
2022-10-29T19:36:50.052Z,13.50
2022-10-29T19:38:51.660Z,13.60
2022-10-29T19:40:55.956Z,12.93
2022-10-29T19:42:57.392Z,13.13
2022-10-29T19:44:58.822Z,12.60
2022-10-29T19:47:00.322Z,12.20
2022-10-29T19:49:01.773Z,11.82
2022-10-29T19:51:03.459Z,11.70
2022-10-29T19:53:05.587Z,11.45
2022-10-29T19:55:07.769Z,12.20
2022-10-29T19:57:09.241Z,10.82
2022-10-29T19:59:10.732Z,12.38
2022-10-29T20:01:15.947Z,11.52
2022-10-29T20:03:18.770Z,11.32
2022-10-29T20:05:21.037Z,11.10
2022-10-29T20:07:22.541Z,11.90
2022-10-29T20:09:24.110Z,11.90
2022-10-29T20:11:25.588Z,10.57
2022-10-29T20:13:27.681Z,11.18
2022-10-29T20:15:29.486Z,10.52
2022-10-29T20:17:31.484Z,11.40
2022-10-29T20:19:32.948Z,12.18
2022-10-29T20:21:34.409Z,11.38
2022-10-29T20:23:36.218Z,10.75
2022-10-29T20:25:37.947Z,11.98
2022-10-29T20:27:39.523Z,11.68
2022-10-29T20:29:41.099Z,10.30
2022-10-29T20:31:42.516Z,10.88
2022-10-29T20:33:57.894Z,11.02
2022-10-29T20:35:59.368Z,10.82
2022-10-29T20:38:01.143Z,10.30
2022-10-29T20:40:02.956Z,9.90
2022-10-29T20:42:04.422Z,8.98
2022-10-29T20:44:05.882Z,9.50
2022-10-29T20:46:07.308Z,10.13
2022-10-29T20:48:08.747Z,11.02
2022-10-29T20:50:10.210Z,10.00
2022-10-29T20:52:11.685Z,11.00
2022-10-29T20:54:13.129Z,11.70
2022-10-29T20:56:16.347Z,12.48
2022-10-29T20:58:20.048Z,12.18
2022-10-29T21:00:21.685Z,10.70
2022-10-29T21:02:23.297Z,9.57
2022-10-29T21:04:24.849Z,9.55
2022-10-29T21:06:26.624Z,8.50
2022-10-29T21:10:35.158Z,8.95
2022-10-29T21:12:36.613Z,9.55
2022-10-29T21:14:38.064Z,9.90
2022-10-29T21:16:39.663Z,9.70
2022-10-29T21:18:42.479Z,9.60
2022-10-29T21:20:43.928Z,8.98
2022-10-29T21:22:45.349Z,10.27
2022-10-29T21:24:46.798Z,9.75
2022-10-29T21:26:48.203Z,9.23
2022-10-29T21:28:51.179Z,9.10
2022-10-29T21:30:53.253Z,9.35
2022-10-29T21:32:55.278Z,9.38
2022-10-29T21:34:56.699Z,9.20
2022-10-29T21:36:58.178Z,8.68
2022-10-29T21:38:59.661Z,9.25
2022-10-29T21:41:04.288Z,8.93
2022-10-29T21:43:05.817Z,9.63
2022-10-29T21:45:07.493Z,9.40
2022-10-29T21:47:09.022Z,8.93
2022-10-29T21:49:10.440Z,9.23
2022-10-29T21:51:14.053Z,10.10
2022-10-29T21:55:22.129Z,9.63
2022-10-29T21:57:23.566Z,8.10
2022-10-29T21:59:25.026Z,9.68
2022-10-29T22:01:26.621Z,11.02
2022-10-29T22:03:30.505Z,8.60
2022-10-29T22:05:32.002Z,9.80
2022-10-29T22:07:34.652Z,11.10
2022-10-29T22:09:36.098Z,9.80
2022-10-29T22:11:37.581Z,9.32
2022-10-29T22:13:39.379Z,8.50
2022-10-29T22:15:40.824Z,8.90
2022-10-29T22:17:42.256Z,10.70
2022-10-29T22:19:43.718Z,9.63
2022-10-29T22:21:46.229Z,8.75
2022-10-29T22:23:50.804Z,8.90
2022-10-29T22:25:52.270Z,8.95
2022-10-29T22:27:53.859Z,8.77
2022-10-29T22:29:55.302Z,8.57
2022-10-29T22:31:56.870Z,9.40
2022-10-29T22:33:58.296Z,8.68
2022-10-29T22:36:10.044Z,8.52
2022-10-29T22:38:11.461Z,9.52
2022-10-29T22:40:12.931Z,8.35
2022-10-29T22:42:14.383Z,8.10
2022-10-29T22:44:15.878Z,8.30
2022-10-29T22:46:19.137Z,8.77
2022-10-29T22:48:20.591Z,8.38
2022-10-29T22:50:22.156Z,8.13
2022-10-29T22:52:23.597Z,7.72
2022-10-29T22:54:25.069Z,7.78
2022-10-29T22:56:29.076Z,7.95
2022-10-29T22:58:31.221Z,8.57
2022-10-29T23:00:32.663Z,8.88
2022-10-29T23:02:34.138Z,8.43
2022-10-29T23:04:35.698Z,8.35
2022-10-29T23:06:37.138Z,8.60
2022-10-29T23:08:38.769Z,8.18
2022-10-29T23:10:40.240Z,9.18
2022-10-29T23:12:41.646Z,21.83
2022-10-29T23:14:43.110Z,13.88
2022-10-29T23:16:44.530Z,10.52
2022-10-29T23:18:50.414Z,10.52
2022-10-29T23:21:01.737Z,9.20
2022-10-29T23:23:03.185Z,9.95
2022-10-29T23:25:04.958Z,8.82
2022-10-29T23:27:06.398Z,9.07
2022-10-29T23:29:07.821Z,10.93
2022-10-29T23:31:15.506Z,9.60
2022-10-29T23:33:16.938Z,9.03
2022-10-29T23:35:18.415Z,10.10
2022-10-29T23:37:19.841Z,8.45
2022-10-29T23:39:21.252Z,8.88
2022-10-29T23:41:22.820Z,7.70
2022-10-29T23:43:24.546Z,8.60
2022-10-29T23:45:25.985Z,8.95
2022-10-29T23:47:27.411Z,8.52
2022-10-29T23:49:28.840Z,8.13
2022-10-29T23:51:30.373Z,8.27
2022-10-29T23:53:31.881Z,8.45
2022-10-29T23:55:34.128Z,8.18
2022-10-29T23:57:35.613Z,15.75
2022-10-29T23:59:37.044Z,8.05
